Date,TemperatureHighF,TemperatureAvgF,TemperatureLowF,DewpointHighF,DewpointAvgF,DewpointLowF,HumidityHigh,HumidityAvg,HumidityLow,PressureMaxIn,PressureMinIn,WindSpeedMaxMPH,WindSpeedAvgMPH,GustSpeedMaxMPH,PrecipitationSumIn
2013-11-1,77.2,61.4,49.1,66.9,55.6,44.5,98,83,46,29.91,29.82,8,2,13,0.29
2013-11-2,67.1,51.2,43.7,50.6,42.0,33.8,98,73,41,30.12,29.88,7,2,12,0.00
2013-11-3,70.0,48.6,39.0,45.5,38.3,32.0,98,71,35,30.30,30.12,8,3,18,0.00
2013-11-4,76.8,51.9,43.0,44.8,35.7,31.0,80,56,31,30.41,30.30,8,3,18,0.00
2013-11-5,78.8,56.5,43.0,47.3,37.8,30.9,66,51,33,30.42,30.33,8,3,13,0.00
2013-11-6,79.3,61.8,51.6,57.0,50.7,34.1,93,69,43,30.36,30.15,10,4,16,0.00
2013-11-7,59.4,49.7,37.9,56.6,45.2,30.2,98,85,62,30.27,30.09,9,3,14,0.45
2013-11-8,62.8,43.2,35.8,33.5,27.7,21.8,82,57,30,30.36,30.24,8,4,18,0.00
2013-11-9,57.7,47.0,38.5,35.4,28.4,23.4,58,49,39,30.33,30.24,8,3,11,0.00
2013-11-10,75.2,53.3,40.5,44.0,35.0,26.8,75,52,32,30.33,30.27,9,2,13,0.00
2013-11-11,74.7,56.8,38.1,38.5,32.3,26.6,63,41,23,30.33,30.21,7,3,12,0.00
2013-11-12,52.2,40.1,25.3,37.7,25.3,11.4,82,56,44,30.44,30.18,10,4,20,0.00
2013-11-13,53.1,31.7,21.0,23.4,15.2,11.1,70,52,28,30.56,30.44,10,4,15,0.00
2013-11-14,66.7,46.3,29.5,27.5,15.5,-9.4,56,35,5,30.44,30.30,6,2,7,0.00
2013-11-15,52.7,49.1,41.7,50.7,38.4,18.0,94,70,37,30.30,30.18,6,3,11,0.17
2013-11-16,61.7,56.5,52.7,56.2,53.4,50.7,96,90,81,30.24,30.15,7,3,15,0.00
2013-11-17,64.8,60.5,57.9,64.2,58.2,54.6,98,92,83,30.15,29.94,11,4,17,0.30
2013-11-18,65.1,55.3,45.0,64.5,41.2,27.9,98,61,42,30.15,29.97,6,3,14,0.35
2013-11-19,49.6,42.4,36.3,28.8,25.4,23.1,60,51,42,30.15,28.08,12,4,17,0.00
2013-11-20,55.2,46.2,38.8,31.6,27.4,23.1,56,48,39,28.26,28.14,14,3,14,0.00
2013-11-21,64.4,54.4,45.1,54.0,45.3,27.1,89,72,49,35.05,28.26,10,4,18,0.00
2013-11-22,60.6,58.2,56.8,58.9,56.2,53.8,98,93,89,30.39,30.30,6,2,13,0.21
2013-11-23,53.4,42.7,31.5,52.6,39.7,19.6,98,90,61,30.39,30.27,11,3,12,0.08
2013-11-24,32.9,26.6,20.3,18.2,11.5,7.5,64,53,42,30.50,30.39,12,5,16,0.00
2013-11-25,44.1,35.7,25.9,34.0,17.6,10.2,88,49,34,30.47,30.24,13,4,16,0.13
2013-11-26,47.8,40.4,33.1,47.3,39.1,31.3,98,95,86,30.21,29.82,7,3,13,2.48
2013-11-27,35.4,28.6,22.5,34.7,23.8,15.1,97,83,68,30.27,29.85,8,3,17,0.04
2013-11-28,41.4,29.4,18.3,27.4,20.2,12.3,81,69,54,30.47,30.27,4,2,9,0.00
2013-11-29,46.9,37.2,29.1,27.9,23.0,17.7,67,57,47,30.56,30.47,7,3,10,0.13
2013-11-30,52.7,44.4,36.1,30.9,25.8,21.0,54,48,39,30.53,30.36,8,4,17,0.04